Time;durP1;ratioP1;P1;durP2;ratioP2;P2;SDS_P1;SDS_P2;PMS_P1;PMS_P2;Temp;Humidity;BMP_temperature;BMP_pressure;BME280_temperature;BME280_humidity;BME280_pressure;Samples;Min_cycle;Max_cycle;Signal;HPM_P1;HPM_P2
2019/06/14 00:00:43;;;;;;;2;1.7;;;;;;;17.75;60.67285;1000.869;;;;
2019/06/14 00:03:08;;;;;;;2.3;1.6;;;;;;;17.72;60.76074;1000.828;;;;
2019/06/14 00:05:33;;;;;;;3.5;1.5;;;;;;;17.66;61.09082;1000.803;;;;
2019/06/14 00:07:58;;;;;;;3.2;1.8;;;;;;;17.61;61.38574;1000.931;;;;
2019/06/14 00:10:23;;;;;;;3;1.7;;;;;;;17.61;61.47949;1000.931;;;;
2019/06/14 00:12:48;;;;;;;3.1;1.6;;;;;;;17.61;61.47949;1000.95;;;;
2019/06/14 00:15:14;;;;;;;2;1.8;;;;;;;17.53;61.79492;1000.992;;;;
2019/06/14 00:17:39;;;;;;;2.7;1.8;;;;;;;17.52;61.85156;1001.024;;;;
2019/06/14 00:20:05;;;;;;;2.6;1.7;;;;;;;17.45;62.22559;1001.05;;;;
2019/06/14 00:22:30;;;;;;;3.4;1.7;;;;;;;17.36;62.73438;1001.103;;;;
2019/06/14 00:24:55;;;;;;;3.7;1.9;;;;;;;17.29;63.44824;1001.179;;;;
2019/06/14 00:27:21;;;;;;;3.3;1.8;;;;;;;17.17;64.5918;1001.195;;;;
2019/06/14 00:29:46;;;;;;;3.2;1.7;;;;;;;17.22;63.86621;1001.18;;;;
2019/06/14 00:32:11;;;;;;;3.8;2.1;;;;;;;17.19;64.29199;1001.187;;;;
2019/06/14 00:34:36;;;;;;;3.2;1.9;;;;;;;17.2;65.375;1001.143;;;;
2019/06/14 00:37:01;;;;;;;4.7;1.8;;;;;;;17.31;64.36816;1001.05;;;;
2019/06/14 00:39:27;;;;;;;4.8;2;;;;;;;17.6;63.27051;1001.047;;;;
2019/06/14 00:41:53;;;;;;;3.9;1.8;;;;;;;17.76;62.90918;1000.98;;;;
2019/06/14 00:44:18;;;;;;;2.7;1.7;;;;;;;17.76;63.17676;1001.021;;;;
2019/06/14 00:46:44;;;;;;;4.2;1.8;;;;;;;17.51;64.35059;1000.97;;;;
2019/06/14 00:49:09;;;;;;;3.8;1.9;;;;;;;17.33;66.11426;1000.965;;;;
2019/06/14 00:51:39;;;;;;;2.1;1.9;;;;;;;17.08;67.16992;1000.941;;;;
2019/06/14 00:54:05;;;;;;;3;2.1;;;;;;;16.96;67.62695;1000.933;;;;
2019/06/14 00:56:31;;;;;;;3.9;1.9;;;;;;;16.83;68.54688;1000.911;;;;
2019/06/14 00:58:56;;;;;;;2.7;2.2;;;;;;;17.18;66.00977;1000.927;;;;
2019/06/14 01:01:21;;;;;;;2.8;1.9;;;;;;;17.3;65.63379;1000.874;;;;
2019/06/14 01:03:46;;;;;;;3;1.8;;;;;;;17.41;64.97559;1000.836;;;;
2019/06/14 01:06:11;;;;;;;4.3;1.9;;;;;;;17.61;64.41113;1000.751;;;;
2019/06/14 01:08:36;;;;;;;5.2;2;;;;;;;17.88;63.27637;1000.688;;;;
2019/06/14 01:11:01;;;;;;;2.5;1.9;;;;;;;17.75;63.74414;1000.616;;;;
2019/06/14 01:13:28;;;;;;;3.5;1.9;;;;;;;17.66;64.05859;1000.615;;;;
2019/06/14 01:15:52;;;;;;;3.7;2.1;;;;;;;17.93;62.93359;1000.604;;;;
2019/06/14 01:18:17;;;;;;;3.2;1.9;;;;;;;17.9;63.00977;1000.65;;;;
2019/06/14 01:20:42;;;;;;;2.1;1.8;;;;;;;17.86;63.08691;1000.676;;;;
2019/06/14 01:23:07;;;;;;;3.6;1.9;;;;;;;17.77;63.25977;1000.633;;;;
2019/06/14 01:25:32;;;;;;;3.1;2;;;;;;;17.77;63.14258;1000.628;;;;
2019/06/14 01:27:57;;;;;;;3.7;1.9;;;;;;;17.8;63.03223;1000.627;;;;
2019/06/14 01:30:22;;;;;;;3.8;2;;;;;;;17.73;63.33594;1000.657;;;;
2019/06/14 01:32:48;;;;;;;2.4;1.9;;;;;;;17.77;63.25977;1000.654;;;;
2019/06/14 01:35:13;;;;;;;2.3;1.8;;;;;;;17.72;63.55469;1000.643;;;;
2019/06/14 01:37:38;;;;;;;4.9;1.9;;;;;;;17.69;63.67969;1000.655;;;;
2019/06/14 01:40:03;;;;;;;2.4;2.2;;;;;;;17.69;63.59668;1000.636;;;;
2019/06/14 01:42:28;;;;;;;4.2;1.9;;;;;;;17.69;63.55078;1000.686;;;;
2019/06/14 01:44:53;;;;;;;3.1;2.1;;;;;;;17.67;63.62891;1000.707;;;;
2019/06/14 01:47:18;;;;;;;3;2.1;;;;;;;17.52;64.44629;1000.716;;;;
2019/06/14 01:49:43;;;;;;;2.7;2.1;;;;;;;17.41;64.40527;1000.634;;;;
2019/06/14 01:52:08;;;;;;;2.1;1.9;;;;;;;17.31;64.6582;1000.595;;;;
2019/06/14 01:54:33;;;;;;;2.8;2;;;;;;;17.3;64.62207;1000.615;;;;
2019/06/14 01:56:59;;;;;;;3.8;2.1;;;;;;;17.35;65.66504;1000.566;;;;
2019/06/14 01:59:24;;;;;;;2.6;2.1;;;;;;;17.03;67.24316;1000.522;;;;
2019/06/14 02:01:50;;;;;;;3.7;2.1;;;;;;;16.79;68.84375;1000.504;;;;
2019/06/14 02:04:15;;;;;;;3.4;2.1;;;;;;;16.53;68.91992;1000.557;;;;
2019/06/14 02:06:40;;;;;;;5.3;2.6;;;;;;;16.65;68.19434;1000.504;;;;
2019/06/14 02:09:06;;;;;;;4.1;2.1;;;;;;;16.62;67.8877;1000.456;;;;
2019/06/14 02:11:31;;;;;;;2.7;2;;;;;;;16.68;67.5625;1000.49;;;;
2019/06/14 02:13:56;;;;;;;3.1;2.1;;;;;;;16.63;68.07617;1000.524;;;;
2019/06/14 02:16:22;;;;;;;2.6;2.1;;;;;;;16.56;68.4834;1000.478;;;;
2019/06/14 02:18:47;;;;;;;4.9;2.3;;;;;;;16.5;68.21973;1000.493;;;;
2019/06/14 02:21:12;;;;;;;4.8;2.6;;;;;;;16.53;68.39648;1000.462;;;;
2019/06/14 02:23:37;;;;;;;5.1;2.6;;;;;;;16.6;67.73438;1000.474;;;;
2019/06/14 02:26:02;;;;;;;4.2;2.2;;;;;;;16.74;67.03613;1000.512;;;;
2019/06/14 02:28:27;;;;;;;4.3;2.2;;;;;;;16.87;66.52148;1000.543;;;;
2019/06/14 02:30:52;;;;;;;4;2.3;;;;;;;16.85;66.49414;1000.554;;;;
2019/06/14 02:33:17;;;;;;;3.1;2.1;;;;;;;16.76;66.96973;1000.589;;;;
2019/06/14 02:35:42;;;;;;;4.5;2.2;;;;;;;16.68;67.21387;1000.621;;;;
2019/06/14 02:38:08;;;;;;;2.4;2;;;;;;;16.55;67.87793;1000.639;;;;
2019/06/14 02:40:33;;;;;;;4.4;2.7;;;;;;;16.32;69.82715;1000.708;;;;
2019/06/14 02:42:58;;;;;;;4;2.4;;;;;;;16.1;70.34766;1000.657;;;;
2019/06/14 02:45:23;;;;;;;3.4;2.6;;;;;;;15.98;70.35254;1000.643;;;;
2019/06/14 02:47:48;;;;;;;3.3;2.4;;;;;;;16.04;69.82813;1000.584;;;;
2019/06/14 02:50:13;;;;;;;4;2.5;;;;;;;16.02;70.02148;1000.569;;;;
2019/06/14 02:52:38;;;;;;;3.5;2.1;;;;;;;16.06;69.8418;1000.569;;;;
2019/06/14 02:55:03;;;;;;;5.2;2.4;;;;;;;16.16;68.74512;1000.572;;;;
2019/06/14 02:57:29;;;;;;;4.2;2.1;;;;;;;16.22;68.37207;1000.635;;;;
2019/06/14 02:59:54;;;;;;;3.5;2.3;;;;;;;16.36;67.68652;1000.66;;;;
2019/06/14 03:02:19;;;;;;;3.3;2.2;;;;;;;16.43;67.34863;1000.604;;;;
2019/06/14 03:04:45;;;;;;;3.4;2.3;;;;;;;16.47;67.08691;1000.637;;;;
2019/06/14 03:07:10;;;;;;;3.1;2.2;;;;;;;16.45;67.07422;1000.615;;;;
2019/06/14 03:09:38;;;;;;;2.9;2.3;;;;;;;16.38;67.59668;1000.622;;;;
2019/06/14 03:12:03;;;;;;;3.8;2.2;;;;;;;16.41;66.66113;1000.641;;;;
2019/06/14 03:14:28;;;;;;;4.2;2.2;;;;;;;16.35;67.36035;1000.68;;;;
2019/06/14 03:16:53;;;;;;;4.4;2.4;;;;;;;16.17;70.69531;1000.648;;;;
2019/06/14 03:19:18;;;;;;;4.9;2.4;;;;;;;15.95;71.45898;1000.654;;;;
2019/06/14 03:21:43;;;;;;;4.1;2.5;;;;;;;15.86;71.09668;1000.682;;;;
2019/06/14 03:24:08;;;;;;;3.9;2.4;;;;;;;15.82;70.53516;1000.64;;;;
2019/06/14 03:26:34;;;;;;;4.8;3.1;;;;;;;15.79;72.89258;1000.608;;;;
2019/06/14 03:28:59;;;;;;;13.6;5.2;;;;;;;15.67;72.72461;1000.596;;;;
2019/06/14 03:31:24;;;;;;;10.5;4.3;;;;;;;15.57;73.69043;1000.6;;;;
2019/06/14 03:33:49;;;;;;;4;2.3;;;;;;;15.31;73.42676;1000.68;;;;
2019/06/14 03:36:14;;;;;;;4.2;2.7;;;;;;;15.26;74.1709;1000.688;;;;
2019/06/14 03:38:39;;;;;;;6.4;3.3;;;;;;;15.25;74.48047;1000.715;;;;
2019/06/14 03:41:05;;;;;;;3.8;2.6;;;;;;;15.12;74.75977;1000.73;;;;
2019/06/14 03:43:30;;;;;;;5.3;2.9;;;;;;;15.16;75.55273;1000.763;;;;
2019/06/14 03:45:56;;;;;;;4;2.8;;;;;;;15.05;76.14746;1000.688;;;;
2019/06/14 03:48:21;;;;;;;4.2;2.5;;;;;;;15.21;75.53906;1000.675;;;;
2019/06/14 03:50:46;;;;;;;4.7;2.9;;;;;;;15.32;75.44238;1000.664;;;;
2019/06/14 03:53:11;;;;;;;4.9;3.4;;;;;;;15.16;75.94629;1000.669;;;;
2019/06/14 03:55:37;;;;;;;4.9;2.9;;;;;;;15.1;76.36523;1000.651;;;;
2019/06/14 03:58:02;;;;;;;4.4;3;;;;;;;15.2;76.16211;1000.63;;;;
2019/06/14 04:02:28;;;;;;;5.9;2.9;;;;;;;15.05;76.75879;1000.61;;;;
2019/06/14 04:04:53;;;;;;;3.6;2.7;;;;;;;15.19;76.56445;1000.626;;;;
2019/06/14 04:07:18;;;;;;;7;3.1;;;;;;;15.18;76.875;1000.68;;;;
2019/06/14 04:09:43;;;;;;;6.5;4.7;;;;;;;15.18;76.94629;1000.674;;;;
2019/06/14 04:12:08;;;;;;;3.7;2.9;;;;;;;15.26;76.64648;1000.632;;;;
2019/06/14 04:14:33;;;;;;;5.4;3.1;;;;;;;15.23;76.72461;1000.578;;;;
2019/06/14 04:16:58;;;;;;;3.6;2.9;;;;;;;15.15;77.32129;1000.607;;;;
2019/06/14 04:19:23;;;;;;;4.6;2.9;;;;;;;15.18;77.53613;1000.614;;;;
2019/06/14 04:21:49;;;;;;;4;2.7;;;;;;;15.19;77.60742;1000.607;;;;
2019/06/14 04:24:14;;;;;;;5;3;;;;;;;15.07;78.17676;1000.673;;;;
2019/06/14 04:26:39;;;;;;;5.3;3.1;;;;;;;14.98;78.65625;1000.708;;;;
2019/06/14 04:29:04;;;;;;;5;2.8;;;;;;;15.1;78.5498;1000.696;;;;
2019/06/14 04:31:29;;;;;;;5.1;3.2;;;;;;;15.32;77.65332;1000.684;;;;
2019/06/14 04:33:54;;;;;;;5.2;3;;;;;;;15.24;78.11328;1000.629;;;;
2019/06/14 04:36:19;;;;;;;4.6;2.9;;;;;;;15.44;77.02539;1000.61;;;;
2019/06/14 04:38:44;;;;;;;3.5;3;;;;;;;15.58;76.85352;1000.616;;;;
2019/06/14 04:41:09;;;;;;;3.9;2.6;;;;;;;15.83;75.83203;1000.581;;;;
2019/06/14 04:43:34;;;;;;;3.9;2.7;;;;;;;16.13;74.94238;1000.502;;;;
2019/06/14 04:46:00;;;;;;;3.6;2.6;;;;;;;16.94;71.42383;1000.585;;;;
2019/06/14 04:48:25;;;;;;;5.4;2.9;;;;;;;17.76;68.18164;1000.582;;;;
2019/06/14 04:50:50;;;;;;;4.1;2.5;;;;;;;18.05;67.63184;1000.649;;;;
2019/06/14 04:53:15;;;;;;;5.1;2.6;;;;;;;18.44;66.07227;1000.702;;;;
2019/06/14 04:55:40;;;;;;;3.7;2.6;;;;;;;18.48;65.82129;1000.789;;;;
2019/06/14 04:58:05;;;;;;;4.4;2.7;;;;;;;18.5;65.53418;1000.846;;;;
2019/06/14 05:00:31;;;;;;;5.4;2.7;;;;;;;19.21;63.24316;1000.932;;;;
2019/06/14 05:02:56;;;;;;;5.7;3;;;;;;;18.97;64.40039;1000.958;;;;
2019/06/14 05:05:21;;;;;;;5.5;3;;;;;;;18.73;65.44043;1000.862;;;;
2019/06/14 05:07:46;;;;;;;5.3;2.9;;;;;;;18.61;65.68848;1000.876;;;;
2019/06/14 05:10:11;;;;;;;5.2;2.8;;;;;;;19.13;63.94531;1000.937;;;;
2019/06/14 05:12:36;;;;;;;6.3;3.1;;;;;;;19.26;63.19336;1000.915;;;;
2019/06/14 05:15:02;;;;;;;8.9;3.3;;;;;;;19.47;60.55957;1000.947;;;;
2019/06/14 05:17:28;;;;;;;7.3;3.7;;;;;;;19.69;60.28516;1001.012;;;;
2019/06/14 05:19:53;;;;;;;12.3;10;;;;;;;20.16;59.20313;1000.965;;;;
2019/06/14 05:22:18;;;;;;;5.5;3.8;;;;;;;20.53;57.95313;1001.05;;;;
2019/06/14 05:24:43;;;;;;;5.4;3.8;;;;;;;20.24;59.72949;1001.023;;;;
2019/06/14 05:27:08;;;;;;;6.2;2.7;;;;;;;20.21;58.06445;1000.944;;;;
2019/06/14 05:29:33;;;;;;;5.3;2.4;;;;;;;20.77;56.89453;1000.936;;;;
2019/06/14 05:31:59;;;;;;;3.8;2.3;;;;;;;20.84;55.4502;1000.943;;;;
2019/06/14 05:34:24;;;;;;;4.7;2.9;;;;;;;20.69;56.18066;1000.942;;;;
2019/06/14 05:36:49;;;;;;;5.7;3.9;;;;;;;21.22;53.4209;1000.958;;;;
2019/06/14 05:39:14;;;;;;;3.8;2.2;;;;;;;20.86;53.27344;1000.903;;;;
2019/06/14 05:41:39;;;;;;;3.6;2;;;;;;;20.69;53.98926;1000.896;;;;
2019/06/14 05:44:04;;;;;;;2.1;1.8;;;;;;;20.66;53.27148;1000.896;;;;
2019/06/14 05:46:29;;;;;;;3.8;2.1;;;;;;;20.51;54.93945;1000.932;;;;
2019/06/14 05:48:54;;;;;;;4.1;2;;;;;;;20.92;53.17383;1000.958;;;;
2019/06/14 05:51:19;;;;;;;3;2.1;;;;;;;21.22;52.53027;1000.927;;;;
2019/06/14 05:53:45;;;;;;;3;2.3;;;;;;;21.21;51.72949;1000.89;;;;
2019/06/14 05:56:10;;;;;;;6;2.1;;;;;;;21.49;51.10645;1000.791;;;;
2019/06/14 05:58:35;;;;;;;4.9;2.1;;;;;;;21.54;50.61914;1000.899;;;;
2019/06/14 06:01:00;;;;;;;4.6;2.1;;;;;;;21.76;50.52637;1001.016;;;;
2019/06/14 06:03:27;;;;;;;4.9;2.6;;;;;;;21.84;49.50195;1001.109;;;;
2019/06/14 06:05:52;;;;;;;4.2;1.8;;;;;;;22.33;48.45215;1000.993;;;;
2019/06/14 06:08:18;;;;;;;4.6;2;;;;;;;22.94;45.93945;1000.935;;;;
2019/06/14 06:10:43;;;;;;;3.7;1.9;;;;;;;22.62;47.35352;1001.014;;;;
2019/06/14 06:13:08;;;;;;;3.6;2.1;;;;;;;22.21;48.08496;1001.141;;;;
2019/06/14 06:15:33;;;;;;;4.9;2.3;;;;;;;22.11;48.82617;1001.119;;;;
2019/06/14 06:17:58;;;;;;;3.8;2.3;;;;;;;21.94;49.20703;1001.021;;;;
2019/06/14 06:20:23;;;;;;;2.8;2;;;;;;;21.94;49.67871;1001.01;;;;
2019/06/14 06:22:49;;;;;;;5.9;2.2;;;;;;;21.88;50.375;1000.969;;;;
2019/06/14 06:25:14;;;;;;;3.9;2.1;;;;;;;21.71;51.1084;1000.974;;;;
2019/06/14 06:27:39;;;;;;;4.8;2.8;;;;;;;21.95;50.93555;1001.089;;;;
2019/06/14 06:30:04;;;;;;;4.7;2.2;;;;;;;21.93;50.35645;1001.178;;;;
2019/06/14 06:32:29;;;;;;;4.3;2.4;;;;;;;21.77;51.81934;1001.223;;;;
2019/06/14 06:34:54;;;;;;;5.1;2.1;;;;;;;21.68;52.80762;1001.265;;;;
2019/06/14 06:37:20;;;;;;;4.5;2.6;;;;;;;21.8;52.7041;1001.391;;;;
2019/06/14 06:39:45;;;;;;;4.1;2.1;;;;;;;21.98;52.94824;1001.536;;;;
2019/06/14 06:42:10;;;;;;;6;2.9;;;;;;;22;53.50391;1001.562;;;;
2019/06/14 06:44:35;;;;;;;8.1;5.2;;;;;;;22.45;53.49902;1001.505;;;;
2019/06/14 06:47:00;;;;;;;5.7;2.3;;;;;;;22.09;52.51563;1001.511;;;;
2019/06/14 06:49:25;;;;;;;5.2;2.5;;;;;;;21.62;53.51563;1001.576;;;;
2019/06/14 06:51:50;;;;;;;5;2.2;;;;;;;21.3;55.62598;1001.647;;;;
2019/06/14 06:54:15;;;;;;;5.3;2.1;;;;;;;21.49;55.15527;1001.6;;;;
2019/06/14 06:56:40;;;;;;;4;2.6;;;;;;;21.62;53.86816;1001.653;;;;
2019/06/14 06:59:05;;;;;;;3.8;2;;;;;;;21.86;53.26465;1001.68;;;;
2019/06/14 07:01:30;;;;;;;4.4;2.2;;;;;;;21.96;54.53223;1001.582;;;;
2019/06/14 07:03:56;;;;;;;4.5;2.2;;;;;;;22.51;53.93066;1001.362;;;;
2019/06/14 07:06:21;;;;;;;6.2;3.5;;;;;;;22.47;53.44238;1001.493;;;;
2019/06/14 07:08:46;;;;;;;4.8;2.7;;;;;;;22.99;52.31543;1001.594;;;;
2019/06/14 07:11:11;;;;;;;4.8;2.1;;;;;;;24.22;48.99902;1001.708;;;;
2019/06/14 07:13:36;;;;;;;4.5;2.3;;;;;;;25.49;45.19531;1001.787;;;;
2019/06/14 07:16:01;;;;;;;3.7;1.9;;;;;;;24.58;46.9707;1001.758;;;;
2019/06/14 07:18:26;;;;;;;4.9;2.2;;;;;;;24.58;46.9707;1001.824;;;;
2019/06/14 07:20:51;;;;;;;5.5;2.4;;;;;;;24.83;46.83203;1001.937;;;;
2019/06/14 07:23:16;;;;;;;3.4;2;;;;;;;24.59;47.125;1001.976;;;;
2019/06/14 07:25:41;;;;;;;4.6;2.1;;;;;;;24.06;48.71094;1001.875;;;;
2019/06/14 07:28:07;;;;;;;4.1;3.2;;;;;;;24.06;48.89941;1001.951;;;;
2019/06/14 07:30:32;;;;;;;3.9;2.7;;;;;;;24.13;49.5918;1002.023;;;;
2019/06/14 07:32:57;;;;;;;3.9;2.5;;;;;;;23.51;51.97656;1002.056;;;;
2019/06/14 07:35:22;;;;;;;5.6;2.3;;;;;;;23.53;52.56836;1001.986;;;;
2019/06/14 07:37:47;;;;;;;6;2.4;;;;;;;23.79;52.1377;1001.908;;;;
2019/06/14 07:40:12;;;;;;;5.4;2.9;;;;;;;24.23;51.0332;1002.036;;;;
2019/06/14 07:42:37;;;;;;;4.4;2.4;;;;;;;24.47;51.13086;1001.925;;;;
2019/06/14 07:45:03;;;;;;;4;3;;;;;;;24.61;51.50195;1001.944;;;;
2019/06/14 07:47:28;;;;;;;4;2.5;;;;;;;25.23;48.74414;1002.002;;;;
2019/06/14 07:49:53;;;;;;;6.8;2.3;;;;;;;25.69;47.23047;1001.898;;;;
2019/06/14 07:52:19;;;;;;;4.2;2.3;;;;;;;27;44.44434;1001.912;;;;
2019/06/14 07:54:45;;;;;;;6;2.5;;;;;;;26.81;43.0957;1001.971;;;;
2019/06/14 07:57:10;;;;;;;5.2;2.4;;;;;;;27.72;42.04004;1001.987;;;;
2019/06/14 07:59:35;;;;;;;4.8;2.5;;;;;;;28.11;39.91992;1002.085;;;;
2019/06/14 08:02:00;;;;;;;5.7;2.3;;;;;;;27.98;40.96777;1002.122;;;;
2019/06/14 08:04:25;;;;;;;6.2;3.1;;;;;;;28.13;41.28027;1002.108;;;;
2019/06/14 08:06:50;;;;;;;7.1;2.9;;;;;;;28.62;40.47852;1002.12;;;;
2019/06/14 08:09:16;;;;;;;7.5;2.9;;;;;;;27.64;42.11621;1002.17;;;;
2019/06/14 08:11:41;;;;;;;5.5;3;;;;;;;28.49;40.88379;1002.015;;;;
2019/06/14 08:14:06;;;;;;;5.7;2.9;;;;;;;29.17;38.70117;1001.986;;;;
2019/06/14 08:16:33;;;;;;;9;3.3;;;;;;;27.96;41.69336;1002.079;;;;
2019/06/14 08:19:02;;;;;;;6;3.6;;;;;;;28.67;40.4707;1001.948;;;;
2019/06/14 08:21:23;;;;;;;7.4;3.4;;;;;;;29.15;39.1416;1001.916;;;;
2019/06/14 08:23:48;;;;;;;7.5;3.4;;;;;;;29.97;37.98047;1001.993;;;;
2019/06/14 08:26:13;;;;;;;8.8;3;;;;;;;30.63;36.64551;1001.968;;;;
2019/06/14 08:28:41;;;;;;;7.6;3.1;;;;;;;32.73;32.13379;1001.83;;;;
2019/06/14 08:31:06;;;;;;;9;3.3;;;;;;;31.67;33.77637;1001.928;;;;
2019/06/14 08:33:31;;;;;;;5.6;2.9;;;;;;;30.93;35.30371;1001.912;;;;
2019/06/14 08:35:56;;;;;;;8.1;3.1;;;;;;;30.69;35.95508;1001.829;;;;
2019/06/14 08:38:21;;;;;;;8.4;3.2;;;;;;;31.61;34.38379;1001.895;;;;
2019/06/14 08:40:46;;;;;;;8.8;3.1;;;;;;;31.92;33.43457;1001.901;;;;
2019/06/14 08:43:12;;;;;;;7.4;3.3;;;;;;;30.17;36.5;1001.929;;;;
2019/06/14 08:45:37;;;;;;;7.9;3.2;;;;;;;31.43;34.68359;1001.939;;;;
2019/06/14 08:48:02;;;;;;;4.1;2.8;;;;;;;31.39;33.59863;1002.005;;;;
2019/06/14 08:50:27;;;;;;;9.1;3;;;;;;;31.48;33.6543;1002.027;;;;
2019/06/14 08:52:52;;;;;;;8.1;2.7;;;;;;;30.94;35.13672;1002.136;;;;
2019/06/14 08:55:18;;;;;;;5.7;2.4;;;;;;;30.48;34.96973;1002.201;;;;
2019/06/14 08:57:42;;;;;;;4.3;2.8;;;;;;;30.75;33.99609;1002.261;;;;
2019/06/14 09:00:08;;;;;;;5.5;2.7;;;;;;;30.92;34.00781;1002.325;;;;
2019/06/14 09:02:33;;;;;;;5.6;2.5;;;;;;;30.33;34.92188;1002.378;;;;
2019/06/14 09:04:58;;;;;;;7.7;3.1;;;;;;;28.96;37.57227;1002.439;;;;
2019/06/14 09:07:23;;;;;;;7.5;3;;;;;;;29.75;36.88477;1002.532;;;;
2019/06/14 09:09:48;;;;;;;6.7;2.9;;;;;;;29.47;38.90527;1002.519;;;;
2019/06/14 09:12:14;;;;;;;7.3;3.2;;;;;;;29.36;38.86035;1002.566;;;;
2019/06/14 09:14:39;;;;;;;7.8;3.2;;;;;;;29.09;38.13281;1002.562;;;;
2019/06/14 09:17:05;;;;;;;8.2;3.6;;;;;;;28.32;39.53418;1002.478;;;;
2019/06/14 09:19:29;;;;;;;7.1;3.3;;;;;;;27.96;40.25195;1002.429;;;;
2019/06/14 09:21:57;;;;;;;8.4;3.4;;;;;;;27.78;41.16504;1002.454;;;;
2019/06/14 09:24:22;;;;;;;7;3.4;;;;;;;27.53;42.52344;1002.572;;;;
2019/06/14 09:26:47;;;;;;;6.8;3;;;;;;;27.76;41.99609;1002.557;;;;
2019/06/14 09:29:13;;;;;;;9.3;3.3;;;;;;;27.84;42.38574;1002.606;;;;
2019/06/14 09:31:38;;;;;;;5.5;2.8;;;;;;;27.63;42.8418;1002.713;;;;
2019/06/14 09:34:03;;;;;;;7.3;2.9;;;;;;;27.73;43.1123;1002.762;;;;
2019/06/14 09:36:28;;;;;;;6.2;2.9;;;;;;;27.72;42.21875;1002.805;;;;
2019/06/14 09:38:53;;;;;;;8;2.9;;;;;;;27.38;43.37695;1002.838;;;;
2019/06/14 09:41:20;;;;;;;5.3;3.3;;;;;;;27.47;44.32422;1002.868;;;;
2019/06/14 09:43:45;;;;;;;6;3.3;;;;;;;27.11;44.74023;1002.851;;;;
2019/06/14 09:46:10;;;;;;;7.5;3.4;;;;;;;26.34;46.52637;1002.888;;;;
2019/06/14 09:48:36;;;;;;;9.5;6.3;;;;;;;26.42;45.96582;1003.001;;;;
2019/06/14 09:51:01;;;;;;;5.8;3.4;;;;;;;26.52;45.94043;1002.945;;;;
2019/06/14 09:53:26;;;;;;;6.6;3.1;;;;;;;27.45;44.2041;1002.839;;;;
2019/06/14 09:55:51;;;;;;;7.3;3.4;;;;;;;26.65;46.22656;1002.924;;;;
2019/06/14 09:58:16;;;;;;;4.8;3.2;;;;;;;26.12;47.44238;1002.976;;;;
2019/06/14 10:00:42;;;;;;;8.2;3.2;;;;;;;26.13;47.0625;1002.959;;;;
2019/06/14 10:03:07;;;;;;;8;3.3;;;;;;;25.88;49.22949;1003.027;;;;
2019/06/14 10:05:32;;;;;;;6.3;3.6;;;;;;;26.17;47.33984;1003.164;;;;
2019/06/14 10:07:57;;;;;;;8.5;3.2;;;;;;;26.4;47.30566;1003.084;;;;
2019/06/14 10:10:22;;;;;;;9.5;3.4;;;;;;;26.15;47.99023;1003.022;;;;
2019/06/14 10:12:47;;;;;;;7.2;3.7;;;;;;;25.72;45.76367;1003.023;;;;
2019/06/14 10:15:12;;;;;;;8.1;3.5;;;;;;;25.36;46.52051;1003.086;;;;
2019/06/14 10:17:38;;;;;;;8.7;3.5;;;;;;;25.42;46.38379;1003.071;;;;
2019/06/14 10:20:03;;;;;;;7.8;3.7;;;;;;;25.54;46.70508;1003.13;;;;
2019/06/14 10:22:29;;;;;;;6.5;3.6;;;;;;;25.5;48.03809;1003.019;;;;
2019/06/14 10:24:54;;;;;;;10.1;3.3;;;;;;;25.28;49.53027;1003.023;;;;
2019/06/14 10:27:19;;;;;;;5.5;3.1;;;;;;;25.24;50.24805;1003.022;;;;
2019/06/14 10:29:45;;;;;;;8.5;3.2;;;;;;;25.17;50.47754;1003.074;;;;
2019/06/14 10:32:10;;;;;;;6.2;3;;;;;;;24.82;53.0625;1003.012;;;;
2019/06/14 10:34:35;;;;;;;6;3.1;;;;;;;24.86;54.15625;1002.95;;;;
2019/06/14 10:37:01;;;;;;;23.3;16.2;;;;;;;25.43;52.60254;1002.605;;;;
2019/06/14 10:39:26;;;;;;;4.6;3.3;;;;;;;25.11;50.45801;1002.797;;;;
2019/06/14 10:41:51;;;;;;;7.5;3.2;;;;;;;24.69;52.31348;1002.928;;;;
2019/06/14 10:44:18;;;;;;;5.2;2.6;;;;;;;24.73;50.22754;1002.948;;;;
2019/06/14 10:46:43;;;;;;;6;3;;;;;;;24.73;49.10254;1002.783;;;;
2019/06/14 10:49:08;;;;;;;4.9;2.7;;;;;;;24.68;50.33984;1002.64;;;;
2019/06/14 10:51:33;;;;;;;6.7;3.3;;;;;;;24.93;49.84766;1002.578;;;;
2019/06/14 10:53:58;;;;;;;7.7;3.2;;;;;;;25.51;47.41309;1002.648;;;;
2019/06/14 10:56:23;;;;;;;3.3;2.5;;;;;;;24.92;49.66797;1002.745;;;;
2019/06/14 10:58:49;;;;;;;5.2;2.9;;;;;;;24.94;51.49219;1002.796;;;;
2019/06/14 11:01:14;;;;;;;5.2;2.8;;;;;;;25.14;50.0957;1002.716;;;;
2019/06/14 11:03:39;;;;;;;5.3;3.2;;;;;;;25.23;50.17676;1002.652;;;;
2019/06/14 11:06:04;;;;;;;6.7;2.8;;;;;;;25.2;50.96582;1002.724;;;;
2019/06/14 11:08:29;;;;;;;6.1;2.9;;;;;;;25.49;50.90332;1002.74;;;;
2019/06/14 11:10:54;;;;;;;4.4;2.6;;;;;;;25.27;49.96777;1002.786;;;;
2019/06/14 11:13:19;;;;;;;6.9;2.6;;;;;;;25.02;51.32324;1002.706;;;;
2019/06/14 11:15:44;;;;;;;10.6;3;;;;;;;25.09;51.93555;1002.685;;;;
2019/06/14 11:18:09;;;;;;;6.9;2.8;;;;;;;24.86;51.58984;1002.625;;;;
2019/06/14 11:20:34;;;;;;;5.1;2.7;;;;;;;25.18;50.93945;1002.747;;;;
2019/06/14 11:23:01;;;;;;;4.4;2.9;;;;;;;25.58;48.71094;1002.825;;;;
2019/06/14 11:25:27;;;;;;;6.8;2.8;;;;;;;25.46;49.52637;1002.83;;;;
2019/06/14 11:27:51;;;;;;;3.5;2.7;;;;;;;25.63;48.21875;1002.934;;;;
2019/06/14 11:30:18;;;;;;;5.9;2.8;;;;;;;25.73;48.77441;1002.926;;;;
2019/06/14 11:32:43;;;;;;;4.7;2.7;;;;;;;25.85;48.59766;1002.954;;;;
2019/06/14 11:35:09;;;;;;;8.4;2.8;;;;;;;25.92;48.86621;1002.936;;;;
2019/06/14 11:37:34;;;;;;;5.8;2.6;;;;;;;25.84;47.08008;1002.93;;;;
2019/06/14 11:39:59;;;;;;;5.7;2.6;;;;;;;25.61;44.96973;1002.968;;;;
2019/06/14 11:42:24;;;;;;;5.1;2.5;;;;;;;25.51;44.85449;1002.899;;;;
2019/06/14 11:44:49;;;;;;;9.5;2.3;;;;;;;25.94;44.70703;1002.713;;;;
2019/06/14 11:47:14;;;;;;;4.8;2.3;;;;;;;26.06;45.21777;1002.533;;;;
2019/06/14 11:49:40;;;;;;;7.5;2.5;;;;;;;26.81;42.41797;1002.379;;;;
2019/06/14 11:52:04;;;;;;;3.9;1.9;;;;;;;26.57;41.48145;1002.297;;;;
2019/06/14 11:54:30;;;;;;;4.7;2.2;;;;;;;26.7;40.60352;1002.357;;;;
2019/06/14 11:56:54;;;;;;;3.1;2.2;;;;;;;26.82;39.42578;1002.471;;;;
2019/06/14 11:59:19;;;;;;;3.1;2.1;;;;;;;26.9;39.29004;1002.428;;;;
2019/06/14 12:01:44;;;;;;;3.6;2.3;;;;;;;27.09;40.0918;1002.541;;;;
2019/06/14 12:04:10;;;;;;;3.7;2.7;;;;;;;26.83;40.24609;1002.488;;;;
2019/06/14 12:06:35;;;;;;;6.5;2.3;;;;;;;27.2;40.85059;1002.369;;;;
2019/06/14 12:09:00;;;;;;;5.5;2.5;;;;;;;27.02;39.83496;1002.309;;;;
2019/06/14 12:11:25;;;;;;;3.7;2.3;;;;;;;27.07;41.36035;1002.284;;;;
2019/06/14 12:13:50;;;;;;;6.1;2.3;;;;;;;27.94;39.46484;1002.249;;;;
2019/06/14 12:16:15;;;;;;;4.3;2.6;;;;;;;27.18;40.95508;1002.215;;;;
2019/06/14 12:18:40;;;;;;;5.3;2.5;;;;;;;27.37;40.53223;1002.243;;;;
2019/06/14 12:21:05;;;;;;;7;2.7;;;;;;;27.78;40.93945;1002.244;;;;
2019/06/14 12:23:30;;;;;;;6.6;2.9;;;;;;;27.67;40.28613;1002.293;;;;
2019/06/14 12:25:56;;;;;;;5.1;2.6;;;;;;;27.61;40.60254;1002.312;;;;
2019/06/14 12:28:21;;;;;;;3.8;2.5;;;;;;;28.12;39.73145;1002.326;;;;
2019/06/14 12:30:46;;;;;;;4.6;2.5;;;;;;;27.35;41.61328;1002.435;;;;
2019/06/14 12:33:11;;;;;;;4.2;2.8;;;;;;;27.07;42.55078;1002.388;;;;
2019/06/14 12:35:36;;;;;;;6.3;2.8;;;;;;;27.01;42.06836;1002.285;;;;
2019/06/14 12:38:01;;;;;;;4.9;2.5;;;;;;;27.45;42.01465;1002.11;;;;
2019/06/14 12:40:26;;;;;;;6.8;2.7;;;;;;;27.22;42.19531;1002.15;;;;
2019/06/14 12:42:51;;;;;;;6.2;3.2;;;;;;;27.57;42.15723;1001.984;;;;
2019/06/14 12:45:16;;;;;;;7.4;3.1;;;;;;;27.73;41.58887;1001.946;;;;
2019/06/14 12:47:42;;;;;;;6.4;3;;;;;;;27.61;42.30273;1001.987;;;;
2019/06/14 12:50:07;;;;;;;6.8;3.3;;;;;;;26.86;42.66113;1002.014;;;;
2019/06/14 12:52:32;;;;;;;5.9;3.1;;;;;;;27.31;42.00195;1002.169;;;;
2019/06/14 12:54:57;;;;;;;7.2;2.7;;;;;;;26.69;43.03711;1002.329;;;;
2019/06/14 12:57:22;;;;;;;7.8;3;;;;;;;26.98;43.14746;1002.35;;;;
2019/06/14 12:59:47;;;;;;;6.5;4.2;;;;;;;26.89;43.19824;1002.301;;;;
2019/06/14 13:02:13;;;;;;;7.1;3.1;;;;;;;26.83;43.86914;1002.221;;;;
2019/06/14 13:04:39;;;;;;;7.4;3;;;;;;;26.5;44.25293;1002.279;;;;
2019/06/14 13:07:05;;;;;;;7.6;3.1;;;;;;;26.14;44.44238;1002.319;;;;
2019/06/14 13:09:30;;;;;;;6.6;3;;;;;;;25.66;46.14844;1002.319;;;;
2019/06/14 13:11:55;;;;;;;5.9;2.9;;;;;;;25.32;47.33203;1002.401;;;;
2019/06/14 13:14:20;;;;;;;6.5;3.1;;;;;;;25.54;47.23828;1002.504;;;;
2019/06/14 13:16:46;;;;;;;9.2;3.4;;;;;;;25.22;47.86621;1002.55;;;;
2019/06/14 13:19:11;;;;;;;5.1;3;;;;;;;25.33;47.97363;1002.542;;;;
2019/06/14 13:21:36;;;;;;;7;3;;;;;;;25.2;48.63477;1002.528;;;;
2019/06/14 13:24:01;;;;;;;5.6;3;;;;;;;25.24;48.94531;1002.454;;;;
2019/06/14 13:26:26;;;;;;;6;3;;;;;;;24.9;49.11035;1002.406;;;;
2019/06/14 13:28:51;;;;;;;5.6;3.1;;;;;;;24.77;49.72168;1002.4;;;;
2019/06/14 13:31:16;;;;;;;3.9;2.9;;;;;;;24.91;49.18164;1002.299;;;;
2019/06/14 13:33:41;;;;;;;6.6;3;;;;;;;24.88;49.76953;1002.316;;;;
2019/06/14 13:36:06;;;;;;;5.4;3;;;;;;;24.87;50.06445;1002.254;;;;
2019/06/14 13:38:33;;;;;;;6.6;3.1;;;;;;;24.83;50.42676;1002.226;;;;
2019/06/14 13:40:58;;;;;;;6.6;3.4;;;;;;;24.94;50.21484;1002.095;;;;
2019/06/14 13:43:23;;;;;;;7;3;;;;;;;24.62;52.35352;1001.844;;;;
2019/06/14 13:45:49;;;;;;;5.5;2.9;;;;;;;24.73;53.86914;1001.8;;;;
2019/06/14 13:48:14;;;;;;;7.7;3;;;;;;;24.75;52.21484;1001.829;;;;
2019/06/14 13:50:39;;;;;;;4.2;2.9;;;;;;;24.5;53.67578;1001.778;;;;
2019/06/14 13:53:04;;;;;;;6.4;3.3;;;;;;;24.67;52.57227;1001.706;;;;
2019/06/14 13:55:29;;;;;;;6;3.2;;;;;;;24.13;55.24805;1001.783;;;;
2019/06/14 13:57:54;;;;;;;6.4;3.3;;;;;;;24.14;55.99414;1001.688;;;;
2019/06/14 14:00:19;;;;;;;5.5;3.2;;;;;;;24.21;57.09961;1001.519;;;;
2019/06/14 14:02:46;;;;;;;6.1;3.3;;;;;;;24.04;57.7998;1001.453;;;;
2019/06/14 14:05:11;;;;;;;6.9;3.4;;;;;;;23.69;57.9541;1001.498;;;;
2019/06/14 14:07:36;;;;;;;7.4;3.2;;;;;;;23.6;58.38965;1001.488;;;;
2019/06/14 14:10:01;;;;;;;3.7;3;;;;;;;23.54;60.59961;1001.477;;;;
2019/06/14 14:12:26;;;;;;;5.9;3.8;;;;;;;23.31;60.43848;1001.453;;;;
2019/06/14 14:14:51;;;;;;;5.6;3.8;;;;;;;23.17;61.78613;1001.611;;;;